Aeroporto :
LOGIN :

Iscrizione | Disclaimer

   EN    FR    IT 

 










Sommario :    VFR   VFR Marginale   IFR   IFR Intensivo   IFR Molto Intensivo
Visibilità : 
Base nubi : 
>= 8 km
>= 3000ft
5 / 8 km
1000 / 3000 ft
1500m / 5 km
500 / 1000 ft
800 / 1500m
200 / 500 ft
< 800m
< 200 ft
Simboli :   Temporali  Nebbia  Neve Forte  Precipitazioni Forti  Vento > 20 kt
SIGMETs :   Varie  Temporali  Ghiacco  Turbolenza  Onda orograficha  Ceneri Vulcaniche







- Altitudine del aeroporto : 1084 ft
- Codice IATA : EPL
- Carte del aeroporto


LFSG - Épinal-Mirecourt

ULTIMO METAR :
  • 230730Z AUTO 16011KT 6000 OVC004 M01/M01 Q0994

METARs OBSOLETI :
  • 230700Z AUTO 16007KT 4300 BR OVC003 M01/M01 Q0994
  • 230630Z AUTO 16006KT 5000 BR OVC003 M01/M01 Q0995
  • 230600Z AUTO 15006KT 3700 BR OVC002 M01/M02 Q0995
  • 230530Z AUTO 17005KT 6000 OVC005 M01/M02 Q0995
  • 230500Z AUTO 17006KT 9000 OVC006 M01/M02 Q0995
  • 230430Z AUTO 18005KT 150V210 5000 BR OVC004 M02/M02 Q0996

TAF N/A
Nessun NOTAM noto per questo aeroporto.



MetMap, La meteo Aeronautica in un colpo d'occhio ! - Copyright ORBIFLY Dicembre 2007 - Disclaimer

ORBIFLY MET'MAP TEAM :

Programmazione e sviluppo : Alexandra Zaïnal
Concezione e sviluppo : Baudouin d'Aumeries
Co-Programmazione e sviluppo : Marc-Olivier Méhu
Supporto tecnico e logistico : Manuel Goepfert
Aiuto per la traduzione : Arnaldo La Scala

Contatto : metmap@orbifly.com




FONTI E CREDITI :

   NOAA